Time;durP1;ratioP1;P1;durP2;ratioP2;P2;SDS_P1;SDS_P2;PMS_P1;PMS_P2;Temp;Humidity;BMP_temperature;BMP_pressure;BME280_temperature;BME280_humidity;BME280_pressure;Samples;Min_cycle;Max_cycle;Signal;HPM_P1;HPM_P2
2021/06/05 10:26:38;;;;;;;;;4.00;4.00;;;;;22.69;55.96;102302.75;5160047;27;45414;-71
2021/06/05 10:29:17;;;;;;;;;2.50;2.50;;;;;23.24;55.54;102316.38;5131501;27;45582;-72
2021/06/05 10:31:44;;;;;;;;;2.75;2.75;;;;;23.65;54.17;102304.97;5141580;27;45411;-72
2021/06/05 10:34:16;;;;;;;;;6.25;4.00;;;;;23.97;53.63;102301.16;5152771;27;45463;-71
2021/06/05 10:36:45;;;;;;;;;3.00;3.00;;;;;24.25;53.27;102305.56;5129027;27;46147;-72
2021/06/05 10:40:17;;;;;;;;;7.50;6.00;;;;;23.35;45.96;102322.91;5113915;27;45351;-76
2021/06/05 10:42:48;;;;;;;;;6.75;5.75;;;;;22.68;48.74;102323.28;5094014;27;45482;-76
2021/06/05 10:45:24;;;;;;;;;9.25;9.25;;;;;22.22;48.96;102326.88;5095299;27;45296;-76
2021/06/05 10:48:16;;;;;;;;;12.50;10.50;;;;;21.69;50.17;102322.63;5086428;27;45306;-76
2021/06/05 10:50:47;;;;;;;;;7.50;7.50;;;;;21.50;51.42;102317.41;5097079;27;46532;-75
2021/06/05 10:53:44;;;;;;;;;8.75;6.50;;;;;21.13;52.15;102327.38;5088222;27;45605;-75
2021/06/05 10:56:14;;;;;;;;;12.25;9.00;;;;;20.88;52.35;102333.97;5079745;27;45544;-75
2021/06/05 10:58:47;;;;;;;;;9.00;9.00;;;;;20.67;52.98;102330.56;5093670;27;45244;-76
2021/06/05 11:01:39;;;;;;;;;7.00;7.00;;;;;20.62;53.86;102321.94;5082988;27;45266;-76
2021/06/05 11:04:43;;;;;;;;;8.00;8.00;;;;;20.76;53.85;102319.44;5084368;27;45480;-76
2021/06/05 11:07:34;;;;;;;;;7.50;6.25;;;;;20.74;53.13;102323.13;5081458;27;45482;-76
2021/06/05 11:10:09;;;;;;;;;9.00;8.25;;;;;20.74;53.73;102325.78;5093766;27;45637;-75
2021/06/05 11:12:37;;;;;;;;;8.00;8.00;;;;;20.61;53.99;102321.06;5090206;27;48385;-76
2021/06/05 11:15:05;;;;;;;;;5.25;5.00;;;;;20.48;54.95;102327.97;5078472;27;45847;-76
2021/06/05 11:17:40;;;;;;;;;7.25;7.25;;;;;20.37;54.91;102318.72;5087151;27;45491;-75
2021/06/05 11:20:06;;;;;;;;;6.00;6.00;;;;;20.10;55.27;102321.75;5090994;27;45443;-75
2021/06/05 11:22:50;;;;;;;;;12.50;8.50;;;;;20.16;55.30;102321.47;5075624;27;46791;-75
2021/06/05 11:25:15;;;;;;;;;8.75;8.25;;;;;20.12;55.18;102327.91;5085778;27;46379;-76
2021/06/05 11:27:40;;;;;;;;;9.00;9.00;;;;;20.10;55.27;102322.59;5086825;27;45621;-76
2021/06/05 11:30:21;;;;;;;;;10.50;8.50;;;;;20.22;55.82;102305.16;5090053;27;45432;-76
2021/06/05 11:32:53;;;;;;;;;9.50;9.00;;;;;20.32;55.95;102310.91;5086807;27;47063;-76
2021/06/05 11:35:46;;;;;;;;;11.75;11.25;;;;;20.56;55.94;102307.09;5089110;27;45661;-75
2021/06/05 11:38:18;;;;;;;;;8.50;8.00;;;;;20.67;55.23;102310.06;5089941;27;45471;-76
2021/06/05 11:40:52;;;;;;;;;10.25;8.25;;;;;20.74;55.34;102305.25;5090779;27;45625;-75
2021/06/05 11:43:27;;;;;;;;;9.25;8.00;;;;;20.61;55.14;102302.38;5090695;27;45534;-76
2021/06/05 11:45:58;;;;;;;;;15.25;13.25;;;;;20.49;54.90;102311.00;5087890;27;46722;-76
2021/06/05 11:48:41;;;;;;;;;10.25;9.00;;;;;20.35;55.16;102304.53;5090145;27;46886;-76
2021/06/05 11:51:22;;;;;;;;;9.25;9.00;;;;;20.30;55.80;102306.56;5079497;27;45429;-75
2021/06/05 11:53:52;;;;;;;;;12.25;11.00;;;;;20.15;55.71;102310.91;5078019;28;46107;-76
2021/06/05 11:56:27;;;;;;;;;13.00;11.50;;;;;19.97;56.38;102321.47;5075407;27;46183;-77
2021/06/05 11:58:53;;;;;;;;;11.00;9.00;;;;;19.77;56.62;102313.50;5073445;28;45511;-77
2021/06/05 12:01:29;;;;;;;;;11.00;11.00;;;;;19.70;57.29;102316.53;5074954;27;45471;-76
2021/06/05 12:03:54;;;;;;;;;12.00;10.25;;;;;19.72;56.98;102319.97;5076494;27;45515;-76
2021/06/05 12:06:26;;;;;;;;;8.33;7.33;;;;;19.70;57.10;102319.19;5077298;28;46721;-77
2021/06/05 12:09:11;;;;;;;;;8.25;8.00;;;;;19.63;57.61;102318.63;5078283;28;45476;-76
2021/06/05 12:11:44;;;;;;;;;11.50;11.00;;;;;19.58;57.27;102326.84;5073756;28;45448;-76
2021/06/05 12:14:15;;;;;;;;;9.50;8.50;;;;;19.56;57.76;102324.22;5078979;28;45343;-76
2021/06/05 12:16:58;;;;;;;;;9.00;9.00;;;;;19.59;58.16;102323.22;5081975;27;45281;-76
2021/06/05 12:19:26;;;;;;;;;12.00;9.75;;;;;19.62;57.46;102332.88;5080237;27;45439;-76
2021/06/05 12:21:52;;;;;;;;;8.00;7.00;;;;;19.58;57.61;102332.16;5075689;28;45524;-77
2021/06/05 12:24:26;;;;;;;;;7.50;7.00;;;;;19.53;57.38;102324.34;5081483;27;46578;-76
2021/06/05 12:26:57;;;;;;;;;10.75;10.25;;;;;19.45;57.46;102326.53;5081069;27;45311;-76
2021/06/05 12:29:29;;;;;;;;;8.50;8.50;;;;;19.42;57.98;102324.88;5082088;27;45176;-76
2021/06/05 12:31:57;;;;;;;;;9.25;7.50;;;;;19.33;57.86;102318.13;5081617;27;45507;-76
2021/06/05 12:34:37;;;;;;;;;6.25;6.25;;;;;19.25;58.16;102328.28;5081783;27;46021;-76
2021/06/05 12:37:18;;;;;;;;;9.25;9.00;;;;;19.20;58.27;102320.50;5079978;27;45621;-78
2021/06/05 12:39:56;;;;;;;;;9.00;7.75;;;;;19.20;58.52;102328.50;5080748;28;45440;-76
2021/06/05 12:42:37;;;;;;;;;10.50;9.25;;;;;19.18;58.88;102335.69;5078833;28;46366;-76
2021/06/05 12:45:12;;;;;;;;;11.00;9.00;;;;;19.11;58.73;102335.06;5080723;27;45386;-76
2021/06/05 12:47:43;;;;;;;;;10.00;9.75;;;;;19.09;58.83;102325.41;5081732;27;45493;-76
2021/06/05 12:50:13;;;;;;;;;11.50;9.00;;;;;19.10;59.10;102325.34;5080454;28;45349;-76
2021/06/05 12:52:43;;;;;;;;;10.75;9.75;;;;;19.14;58.62;102328.72;5081013;27;45228;-76
2021/06/05 12:55:17;;;;;;;;;9.50;9.50;;;;;19.12;58.77;102323.47;5081234;27;46174;-76
2021/06/05 12:57:47;;;;;;;;;13.75;11.50;;;;;19.14;58.81;102322.56;5080609;27;45515;-76
2021/06/05 13:00:37;;;;;;;;;7.00;7.00;;;;;19.21;58.88;102329.38;5081441;27;45406;-76
2021/06/05 13:03:05;;;;;;;;;12.50;9.50;;;;;19.28;58.56;102329.97;5069945;27;45536;-76
2021/06/05 13:05:32;;;;;;;;;8.25;8.25;;;;;19.20;58.58;102323.16;5081379;28;46762;-76
2021/06/05 13:08:10;;;;;;;;;7.50;7.50;;;;;19.18;58.61;102319.72;5081320;27;45164;-76
2021/06/05 13:10:43;;;;;;;;;11.75;9.50;;;;;19.16;58.73;102318.00;5081321;28;45413;-76
2021/06/05 13:13:15;;;;;;;;;8.25;7.25;;;;;19.24;58.95;102321.22;5080733;27;45204;-76
2021/06/05 13:15:48;;;;;;;;;10.25;8.75;;;;;19.25;58.17;102320.28;5079777;28;47136;-76
2021/06/05 13:18:29;;;;;;;;;9.00;7.50;;;;;19.29;58.89;102311.22;5075994;28;45363;-76
2021/06/05 13:21:03;;;;;;;;;9.25;8.00;;;;;19.32;58.27;102319.09;5081124;27;45290;-76
2021/06/05 13:23:39;;;;;;;;;7.25;7.25;;;;;19.36;58.58;102316.28;5080368;27;46703;-76
2021/06/05 13:26:28;;;;;;;;;8.00;7.25;;;;;19.30;58.33;102317.41;5080805;27;45277;-76
2021/06/05 13:28:56;;;;;;;;;6.75;6.00;;;;;19.28;58.31;102314.84;5081030;27;45337;-76
2021/06/05 13:31:43;;;;;;;;;10.75;8.75;;;;;19.28;58.43;102312.16;5081006;27;45323;-76
2021/06/05 13:34:10;;;;;;;;;8.25;7.50;;;;;19.27;58.97;102302.44;5080919;27;45440;-76
2021/06/05 13:36:35;;;;;;;;;8.25;8.00;;;;;19.36;58.30;102302.97;5076045;27;46116;-77
2021/06/05 13:39:04;;;;;;;;;8.00;8.00;;;;;19.39;57.94;102309.00;5078489;27;45385;-77
2021/06/05 13:41:30;;;;;;;;;7.50;7.50;;;;;19.40;57.97;102312.53;5065245;28;45451;-77
2021/06/05 13:43:56;;;;;;;;;9.00;7.50;;;;;19.43;58.29;102312.41;5081323;27;45466;-77
2021/06/05 13:46:22;;;;;;;;;9.00;8.25;;;;;19.45;58.09;102311.41;5078994;27;45474;-77
2021/06/05 13:48:47;;;;;;;;;8.75;8.75;;;;;19.45;57.72;102307.84;5066255;28;45230;-77
2021/06/05 13:51:13;;;;;;;;;5.25;4.50;;;;;19.48;57.89;102310.41;5080224;27;45409;-77
2021/06/05 13:53:39;;;;;;;;;8.75;6.50;;;;;19.51;57.60;102304.91;5079161;28;46930;-77
2021/06/05 13:56:10;;;;;;;;;6.75;6.00;;;;;19.53;57.49;102303.03;5080036;27;45428;-77
2021/06/05 13:58:38;;;;;;;;;7.00;7.00;;;;;19.67;58.15;102310.41;5079478;27;45593;-77
2021/06/05 14:01:05;;;;;;;;;7.00;6.00;;;;;19.79;57.39;102308.06;5076691;27;45203;-76
2021/06/05 14:03:31;;;;;;;;;7.25;6.75;;;;;19.89;57.26;102308.50;5071947;27;46739;-77
2021/06/05 14:05:56;;;;;;;;;7.00;7.00;;;;;20.01;57.33;102312.38;5079136;27;45370;-77
2021/06/05 14:08:22;;;;;;;;;7.25;7.25;;;;;20.16;56.30;102307.25;5077719;28;45544;-77
2021/06/05 14:10:49;;;;;;;;;8.00;5.00;;;;;20.22;56.09;102310.50;5077193;27;46270;-77
2021/06/05 14:13:16;;;;;;;;;7.00;6.50;;;;;20.21;55.83;102307.91;5074909;28;45716;-77
2021/06/05 14:15:44;;;;;;;;;5.25;5.25;;;;;20.13;55.86;102306.47;5078962;27;45497;-77
2021/06/05 14:18:14;;;;;;;;;6.75;5.00;;;;;20.03;56.34;102315.84;5078197;27;45598;-77
2021/06/05 14:20:43;;;;;;;;;5.00;5.00;;;;;19.96;55.85;102299.25;5072313;28;46992;-77
2021/06/05 14:23:10;;;;;;;;;5.25;4.75;;;;;19.93;56.41;102307.41;5072414;28;47605;-77
2021/06/05 14:25:36;;;;;;;;;8.25;6.00;;;;;19.91;56.02;102311.97;5075746;28;47056;-77
2021/06/05 14:28:03;;;;;;;;;7.50;5.00;;;;;19.86;56.88;102303.31;5077749;28;45313;-77
2021/06/05 14:30:32;;;;;;;;;7.75;6.75;;;;;19.82;56.61;102305.28;5075288;28;45799;-77
2021/06/05 14:32:58;;;;;;;;;9.25;6.75;;;;;19.78;56.85;102307.22;5079794;27;45612;-76
2021/06/05 14:35:24;;;;;;;;;4.50;4.50;;;;;19.72;56.35;102301.31;5079779;27;45964;-77
2021/06/05 14:37:50;;;;;;;;;5.00;5.00;;;;;19.69;56.50;102307.66;5080264;27;45350;-76
2021/06/05 14:40:16;;;;;;;;;5.00;3.25;;;;;19.65;56.53;102309.59;5079466;27;45214;-77
2021/06/05 14:42:41;;;;;;;;;4.50;4.50;;;;;19.62;56.71;102308.88;5079388;27;45676;-77
2021/06/05 14:45:13;;;;;;;;;5.25;5.25;;;;;19.63;56.54;102311.47;5079646;27;45456;-77
2021/06/05 14:47:38;;;;;;;;;3.00;3.00;;;;;19.64;57.10;102309.66;5079561;27;45553;-77
2021/06/05 14:50:06;;;;;;;;;4.00;4.00;;;;;19.67;56.27;102307.72;5079720;27;45257;-76
2021/06/05 14:52:32;;;;;;;;;4.25;4.25;;;;;19.64;55.88;102313.19;5090124;27;45354;-76
2021/06/05 14:54:58;;;;;;;;;4.00;3.00;;;;;19.63;56.22;102306.13;5079234;27;45394;-77
2021/06/05 14:57:24;;;;;;;;;4.00;2.75;;;;;19.61;56.42;102301.78;5076353;27;45634;-79
2021/06/05 14:59:49;;;;;;;;;3.00;3.00;;;;;19.61;55.64;102308.00;5069460;27;45555;-76
2021/06/05 15:02:17;;;;;;;;;5.00;3.50;;;;;19.56;56.13;102308.22;5079108;27;45474;-76
2021/06/05 15:04:45;;;;;;;;;3.50;3.00;;;;;19.57;56.33;102303.75;5079207;28;45312;-76
2021/06/05 15:07:10;;;;;;;;;3.00;3.00;;;;;19.60;56.46;102303.63;5079088;28;45458;-76
2021/06/05 15:09:36;;;;;;;;;4.75;4.75;;;;;19.63;56.37;102297.28;5069052;27;45474;-76
2021/06/05 15:12:01;;;;;;;;;4.25;4.25;;;;;19.68;56.51;102297.91;5074725;27;46652;-76
2021/06/05 15:14:26;;;;;;;;;4.00;4.00;;;;;19.71;55.97;102308.44;5078398;27;45525;-76
2021/06/05 15:16:52;;;;;;;;;2.50;2.50;;;;;19.75;56.04;102303.84;5079263;27;46664;-77
2021/06/05 15:19:17;;;;;;;;;3.50;3.50;;;;;19.77;55.80;102300.16;5079123;28;45246;-76
2021/06/05 15:21:43;;;;;;;;;3.50;3.25;;;;;19.82;56.50;102302.59;5078723;28;45332;-77
2021/06/05 15:24:09;;;;;;;;;4.50;4.00;;;;;19.90;56.36;102294.25;5078881;27;45353;-76
2021/06/05 15:26:35;;;;;;;;;3.25;2.50;;;;;19.98;55.72;102291.19;5081447;27;45262;-76
2021/06/05 15:29:00;;;;;;;;;4.25;4.25;;;;;20.05;55.85;102297.09;5082767;28;45634;-76
2021/06/05 15:31:26;;;;;;;;;4.00;4.00;;;;;20.08;56.14;102291.59;5082617;27;45254;-76
2021/06/05 15:33:52;;;;;;;;;4.50;3.50;;;;;20.18;55.55;102300.91;5082870;27;46088;-76
2021/06/05 15:36:17;;;;;;;;;4.00;4.00;;;;;20.24;54.77;102289.06;5081576;27;45631;-76
2021/06/05 15:38:45;;;;;;;;;4.00;4.00;;;;;20.27;55.60;102285.41;5082485;27;45436;-76
2021/06/05 15:41:11;;;;;;;;;4.00;4.00;;;;;20.36;55.14;102284.94;5081571;27;45561;-76
2021/06/05 15:43:38;;;;;;;;;4.25;3.75;;;;;20.44;55.06;102282.75;5082290;27;46221;-77
2021/06/05 15:46:07;;;;;;;;;5.75;4.00;;;;;20.51;54.36;102282.41;5081802;27;45417;-77
2021/06/05 15:48:42;;;;;;;;;6.00;6.00;;;;;20.52;54.65;102278.81;5076472;28;45228;-76
2021/06/05 15:51:29;;;;;;;;;3.50;3.50;;;;;20.54;54.07;102282.28;5071541;28;46129;-76
2021/06/05 15:53:56;;;;;;;;;3.00;3.00;;;;;20.52;53.69;102274.31;5081029;28;46364;-76
2021/06/05 15:56:25;;;;;;;;;4.00;4.00;;;;;20.50;54.34;102272.66;5082457;27;45237;-76
2021/06/05 15:58:51;;;;;;;;;4.00;4.00;;;;;20.48;54.70;102271.88;5081569;27;45492;-76
2021/06/05 16:01:17;;;;;;;;;5.00;4.25;;;;;20.44;53.61;102277.41;5082261;27;45690;-76
2021/06/05 16:03:44;;;;;;;;;3.75;3.75;;;;;20.41;53.09;102269.53;5077618;28;45350;-76
2021/06/05 16:06:09;;;;;;;;;4.25;3.00;;;;;20.39;53.83;102267.88;5076445;27;45195;-76
2021/06/05 16:08:35;;;;;;;;;3.50;3.00;;;;;20.37;53.75;102270.66;5082632;27;45215;-76
2021/06/05 16:11:00;;;;;;;;;4.00;3.00;;;;;20.41;54.47;102266.88;5081875;27;45273;-76
2021/06/05 16:13:27;;;;;;;;;3.25;3.25;;;;;20.48;54.31;102266.53;5079762;28;48161;-76
2021/06/05 16:15:57;;;;;;;;;4.00;4.00;;;;;20.54;54.16;102268.91;5080802;27;45337;-76
2021/06/05 16:18:26;;;;;;;;;5.50;3.00;;;;;20.56;53.90;102264.34;5081747;27;45421;-76
2021/06/05 16:20:53;;;;;;;;;4.25;4.25;;;;;20.62;54.16;102264.03;5080271;27;45217;-77
2021/06/05 16:23:21;;;;;;;;;5.00;4.00;;;;;20.72;54.10;102268.91;5077937;28;45280;-77
2021/06/05 16:25:46;;;;;;;;;3.00;3.00;;;;;20.75;53.63;102263.38;5077961;27;45372;-76
2021/06/05 16:28:31;;;;;;;;;4.50;4.50;;;;;20.85;53.92;102267.31;5080811;27;45566;-76
2021/06/05 16:30:57;;;;;;;;;5.75;5.00;;;;;20.88;53.71;102264.47;5068694;27;45804;-76
2021/06/05 16:33:22;;;;;;;;;5.00;5.00;;;;;20.87;52.77;102268.09;5078773;27;45211;-77
2021/06/05 16:35:51;;;;;;;;;2.00;2.00;;;;;20.85;52.38;102261.97;5077102;28;45381;-76
2021/06/05 16:38:17;;;;;;;;;4.00;2.75;;;;;20.85;53.04;102259.28;5081587;27;45346;-76
2021/06/05 16:40:45;;;;;;;;;5.50;3.00;;;;;20.88;53.57;102264.47;5081568;27;45420;-76
2021/06/05 16:43:11;;;;;;;;;6.50;4.25;;;;;20.89;52.87;102258.16;5080518;27;46366;-76
2021/06/05 16:45:38;;;;;;;;;3.50;3.00;;;;;20.91;52.68;102261.63;5080659;27;45300;-76
2021/06/05 16:48:05;;;;;;;;;4.00;4.00;;;;;20.88;52.09;102256.47;5081455;27;45475;-76
2021/06/05 16:50:52;;;;;;;;;4.00;4.00;;;;;20.90;52.79;102261.72;5081515;27;45171;-76
2021/06/05 16:53:28;;;;;;;;;5.25;4.00;;;;;20.91;52.77;102258.94;5076013;28;47525;-76
2021/06/05 16:55:59;;;;;;;;;2.25;2.00;;;;;20.97;53.30;102264.91;5081275;27;45263;-77
2021/06/05 16:58:26;;;;;;;;;4.00;4.00;;;;;21.01;53.07;102266.53;5076264;27;45443;-77
2021/06/05 17:00:52;;;;;;;;;3.00;3.00;;;;;21.00;52.94;102270.09;5080080;28;45598;-76
2021/06/05 17:03:19;;;;;;;;;5.25;5.25;;;;;20.96;53.03;102272.09;5081126;27;45455;-76
2021/06/05 17:05:45;;;;;;;;;4.00;4.00;;;;;20.94;53.09;102267.78;5080585;27;45638;-77
2021/06/05 17:08:12;;;;;;;;;4.50;3.50;;;;;20.89;53.27;102266.19;5074425;27;45775;-77
2021/06/05 17:10:40;;;;;;;;;4.50;3.50;;;;;20.87;52.99;102268.09;5075629;28;45786;-76
2021/06/05 17:13:08;;;;;;;;;3.00;3.00;;;;;20.83;53.09;102266.53;5076580;28;45458;-77
2021/06/05 17:15:38;;;;;;;;;4.50;3.50;;;;;20.78;53.05;102258.75;5072818;28;45812;-77
2021/06/05 17:18:05;;;;;;;;;5.75;5.75;;;;;20.78;53.42;102268.56;5073959;27;45405;-76
2021/06/05 17:20:31;;;;;;;;;4.50;4.00;;;;;20.72;53.41;102259.06;5076357;28;45574;-76
2021/06/05 17:22:57;;;;;;;;;5.00;4.00;;;;;20.68;53.53;102263.72;5074347;28;46825;-76
2021/06/05 17:25:29;;;;;;;;;4.00;4.00;;;;;20.68;53.54;102263.72;5073800;28;45521;-77
2021/06/05 17:27:55;;;;;;;;;4.00;4.00;;;;;20.67;53.27;102267.31;5076179;27;46632;-76
2021/06/05 17:30:22;;;;;;;;;4.00;4.00;;;;;20.64;53.39;102271.97;5070949;27;45613;-76
2021/06/05 17:32:48;;;;;;;;;4.00;4.00;;;;;20.61;53.81;102266.78;5068666;27;46362;-77
2021/06/05 17:35:16;;;;;;;;;4.75;4.75;;;;;20.64;53.79;102271.97;5070460;28;46771;-77
2021/06/05 17:37:41;;;;;;;;;12.50;10.25;;;;;20.66;54.31;102284.31;5077266;27;45473;-77
2021/06/05 17:40:10;;;;;;;;;3.00;3.00;;;;;20.66;53.28;102280.78;5074033;27;47139;-77
2021/06/05 17:42:36;;;;;;;;;4.25;4.25;;;;;20.65;53.84;102279.03;5068379;28;45496;-77
2021/06/05 17:45:07;;;;;;;;;5.75;4.50;;;;;20.65;54.23;102279.91;5068826;27;45330;-77
2021/06/05 17:47:32;;;;;;;;;4.00;4.00;;;;;20.65;53.78;102284.38;5072716;28;46066;-77
2021/06/05 17:50:00;;;;;;;;;5.00;5.00;;;;;20.57;53.75;102284.75;5073937;27;45620;-77
2021/06/05 17:52:29;;;;;;;;;4.00;4.00;;;;;20.51;54.46;102287.75;5074118;28;46370;-77
2021/06/05 17:54:54;;;;;;;;;6.25;5.25;;;;;20.45;54.35;102289.78;5075242;28;45517;-77
2021/06/05 17:57:20;;;;;;;;;7.00;7.00;;;;;20.43;54.64;102283.66;5076089;27;45441;-77
2021/06/05 17:59:45;;;;;;;;;5.25;4.50;;;;;20.42;54.90;102283.75;5074316;28;45559;-77
2021/06/05 18:02:10;;;;;;;;;5.00;5.00;;;;;20.38;55.07;102277.69;5074662;27;46073;-77
2021/06/05 18:04:36;;;;;;;;;5.00;5.00;;;;;20.38;55.23;102276.81;5075317;27;45722;-77
2021/06/05 18:07:02;;;;;;;;;6.00;6.00;;;;;20.31;55.84;102269.13;5074935;28;45789;-77
2021/06/05 18:09:28;;;;;;;;;3.00;2.00;;;;;20.29;55.43;102278.16;5075165;28;46625;-76
2021/06/05 18:11:55;;;;;;;;;4.00;4.00;;;;;20.29;55.37;102279.03;5074629;27;45448;-76
2021/06/05 18:14:26;;;;;;;;;4.50;4.25;;;;;20.28;55.42;102276.41;5074950;28;46657;-76
2021/06/05 18:16:52;;;;;;;;;4.50;4.50;;;;;20.30;55.37;102272.75;5075344;28;45441;-76
2021/06/05 18:19:22;;;;;;;;;6.25;4.50;;;;;20.27;54.97;102275.59;5104130;27;46271;-77
2021/06/05 18:21:48;;;;;;;;;7.00;5.50;;;;;20.26;54.93;102271.19;5074639;27;46417;-76
2021/06/05 18:24:16;;;;;;;;;5.75;5.00;;;;;20.24;55.13;102276.59;5075481;28;45751;-77
2021/06/05 18:26:45;;;;;;;;;8.00;6.00;;;;;20.28;54.87;102274.63;5074696;28;45473;-77
2021/06/05 18:29:12;;;;;;;;;5.00;5.00;;;;;20.25;54.59;102277.44;5075093;28;45563;-76
2021/06/05 18:31:39;;;;;;;;;8.00;6.00;;;;;20.26;54.98;102279.19;5070021;27;45543;-77
2021/06/05 18:34:05;;;;;;;;;6.75;6.75;;;;;20.27;55.03;102274.72;5074851;28;45653;-77
2021/06/05 18:36:30;;;;;;;;;6.25;5.50;;;;;20.33;55.42;102285.94;5075108;27;46688;-77
2021/06/05 18:38:57;;;;;;;;;6.00;6.00;;;;;20.31;54.82;102281.63;5073821;27;45460;-76
2021/06/05 18:41:28;;;;;;;;;3.50;3.50;;;;;20.28;54.93;102282.63;5074323;28;46543;-77
2021/06/05 18:43:53;;;;;;;;;4.00;4.00;;;;;20.22;55.05;102285.63;5078290;27;46213;-77
2021/06/05 18:46:20;;;;;;;;;4.00;4.00;;;;;20.22;55.31;102282.94;5079616;27;45494;-75
2021/06/05 18:48:47;;;;;;;;;4.75;4.75;;;;;20.23;55.63;102288.22;5077775;28;46311;-75
2021/06/05 18:51:18;;;;;;;;;5.00;5.00;;;;;20.21;55.56;102282.09;5075737;27;45472;-75
2021/06/05 18:53:43;;;;;;;;;6.00;5.75;;;;;20.16;56.09;102289.44;5079932;27;45306;-75
2021/06/05 18:56:10;;;;;;;;;7.00;6.00;;;;;20.17;56.24;102293.00;5079493;27;45485;-75
2021/06/05 18:58:43;;;;;;;;;8.00;6.00;;;;;20.15;57.24;102293.06;5077525;27;45401;-75
2021/06/05 19:01:12;;;;;;;;;7.25;4.00;;;;;20.12;57.15;102299.41;5079149;28;47110;-75
2021/06/05 19:03:38;;;;;;;;;34.00;28.25;;;;;20.04;57.22;102306.91;5074476;28;45464;-75
2021/06/05 19:06:05;;;;;;;;;5.50;5.50;;;;;19.96;58.04;102309.94;5083193;27;45736;-75
2021/06/05 19:08:31;;;;;;;;;6.50;5.75;;;;;19.85;58.19;102305.09;5081419;27;45467;-75
2021/06/05 19:10:58;;;;;;;;;8.00;6.25;;;;;19.82;58.18;102315.06;5082150;27;45895;-75
2021/06/05 19:13:25;;;;;;;;;5.25;4.75;;;;;19.78;58.35;102312.53;5082208;27;45586;-75
2021/06/05 19:15:51;;;;;;;;;6.75;6.75;;;;;19.70;57.97;102312.06;5082571;27;45271;-75
2021/06/05 19:18:20;;;;;;;;;7.50;6.25;;;;;19.65;58.26;102312.28;5082015;28;45402;-75
2021/06/05 19:20:46;;;;;;;;;7.00;7.00;;;;;19.59;58.13;102312.53;5080897;28;47284;-75
2021/06/05 19:23:15;;;;;;;;;5.00;5.00;;;;;19.58;58.17;102315.28;5082606;27;45471;-75
2021/06/05 19:25:41;;;;;;;;;7.00;7.00;;;;;19.54;58.14;102310.09;5080928;27;45337;-75
2021/06/05 19:28:08;;;;;;;;;6.00;6.00;;;;;19.56;58.16;102318.88;5074464;28;45822;-75
2021/06/05 19:30:45;;;;;;;;;8.50;7.25;;;;;19.54;58.07;102315.44;5073906;28;45606;-75
2021/06/05 19:33:14;;;;;;;;;6.00;6.00;;;;;19.52;57.92;102324.44;5078950;28;45447;-75
2021/06/05 19:35:40;;;;;;;;;6.25;6.25;;;;;19.49;58.04;102328.09;5075432;28;45477;-75
2021/06/05 19:38:06;;;;;;;;;5.75;5.75;;;;;19.45;57.71;102323.84;5079232;28;45469;-75
2021/06/05 19:40:33;;;;;;;;;8.00;6.00;;;;;19.41;57.76;102317.78;5080450;27;45583;-75
2021/06/05 19:42:58;;;;;;;;;6.50;6.00;;;;;19.41;58.18;102324.94;5081718;27;45717;-75
2021/06/05 19:45:28;;;;;;;;;7.50;7.00;;;;;19.39;57.95;102327.66;5081670;27;45713;-75
2021/06/05 19:47:55;;;;;;;;;6.50;6.50;;;;;19.38;58.05;102336.59;5082226;27;45559;-75
2021/06/05 19:50:22;;;;;;;;;9.25;9.25;;;;;19.37;58.75;102339.31;5082208;27;45349;-75
2021/06/05 19:52:47;;;;;;;;;10.00;8.25;;;;;19.35;58.51;102342.06;5081425;27;45236;-74
2021/06/05 19:55:19;;;;;;;;;7.50;7.25;;;;;19.32;58.74;102335.06;5081701;28;45439;-75
2021/06/05 19:57:44;;;;;;;;;8.00;8.00;;;;;19.32;58.84;102347.53;5081585;28;45353;-75
2021/06/05 20:00:18;;;;;;;;;6.25;6.00;;;;;19.29;58.53;102337.88;5081026;27;46356;-75
2021/06/05 20:02:43;;;;;;;;;8.00;8.00;;;;;19.26;58.94;102348.66;5081446;27;45421;-75
2021/06/05 20:05:10;;;;;;;;;7.50;7.50;;;;;19.18;58.42;102341.03;5082217;27;45293;-75
2021/06/05 20:07:35;;;;;;;;;4.00;4.00;;;;;19.10;58.56;102336.00;5080451;27;45471;-74
2021/06/05 20:10:01;;;;;;;;;7.25;7.25;;;;;19.09;59.24;102339.59;5074469;28;46110;-75
2021/06/05 20:12:26;;;;;;;;;8.00;8.00;;;;;19.07;59.34;102345.91;5071296;28;45372;-75
2021/06/05 20:14:52;;;;;;;;;9.00;8.00;;;;;19.02;58.99;102351.44;5078489;27;45290;-74
2021/06/05 20:17:17;;;;;;;;;8.50;8.50;;;;;18.98;59.03;102349.84;5079119;28;45429;-75
2021/06/05 20:19:43;;;;;;;;;9.00;7.00;;;;;18.95;59.14;102360.63;5079740;28;45439;-75
2021/06/05 20:22:10;;;;;;;;;8.50;7.75;;;;;18.89;59.39;102353.75;5071751;27;45254;-75
2021/06/05 20:24:36;;;;;;;;;7.75;7.25;;;;;18.88;59.73;102366.25;5084455;27;45433;-74
2021/06/05 20:27:06;;;;;;;;;8.00;8.00;;;;;18.86;59.98;102361.91;5072459;28;45430;-74
2021/06/05 20:29:32;;;;;;;;;7.25;6.75;;;;;18.83;60.33;102364.69;5079306;28;46386;-74
2021/06/05 20:31:57;;;;;;;;;7.75;6.50;;;;;18.81;60.53;102367.44;5080558;27;45409;-74
2021/06/05 20:34:23;;;;;;;;;11.00;10.25;;;;;18.77;61.51;102374.69;5079556;27;45433;-75
2021/06/05 20:36:48;;;;;;;;;10.25;10.25;;;;;18.74;62.22;102376.63;5074787;27;45348;-75
2021/06/05 20:39:14;;;;;;;;;11.25;9.75;;;;;18.70;61.99;102375.00;5074628;28;46291;-75
2021/06/05 20:41:42;;;;;;;;;11.25;9.25;;;;;18.64;62.26;102368.16;5076304;28;45427;-74
2021/06/05 20:44:07;;;;;;;;;6.75;6.75;;;;;18.62;62.13;102370.84;5080287;27;45498;-78
2021/06/05 20:46:35;;;;;;;;;10.50;9.00;;;;;18.61;62.91;102379.78;5080452;27;45586;-79
2021/06/05 20:49:03;;;;;;;;;9.50;8.00;;;;;18.59;62.61;102391.44;5077201;28;48001;-78
2021/06/05 20:51:29;;;;;;;;;12.50;10.25;;;;;18.54;63.65;102386.28;5077035;28;45702;-78
2021/06/05 20:53:56;;;;;;;;;12.75;10.00;;;;;18.51;63.46;102394.41;5080189;27;45424;-77
2021/06/05 20:56:22;;;;;;;;;15.50;15.00;;;;;18.49;63.96;102405.13;5079186;27;45715;-74
2021/06/05 20:58:47;;;;;;;;;16.25;13.25;;;;;18.46;63.68;102399.03;5067790;28;46155;-74
2021/06/05 21:01:16;;;;;;;;;12.50;12.50;;;;;18.42;63.65;102412.47;5080975;27;45297;-74
2021/06/05 21:03:42;;;;;;;;;13.75;10.75;;;;;18.39;63.71;102409.06;5072408;27;45991;-75
2021/06/05 21:06:13;;;;;;;;;14.75;13.75;;;;;18.35;64.34;102407.47;5077953;27;46285;-74
2021/06/05 21:08:39;;;;;;;;;13.00;11.25;;;;;18.31;64.37;102407.59;5079087;27;45928;-74
2021/06/05 21:11:04;;;;;;;;;11.75;10.75;;;;;18.26;64.59;102401.56;5080381;28;45350;-74
2021/06/05 21:13:35;;;;;;;;;12.75;12.25;;;;;18.20;65.17;102402.66;5080205;27;45317;-74
2021/06/05 21:16:12;;;;;;;;;11.50;11.50;;;;;18.13;64.53;102410.91;5084692;27;45454;-74
2021/06/05 21:18:38;;;;;;;;;13.50;12.25;;;;;18.09;64.85;102415.50;5074425;27;46512;-75
2021/06/05 21:21:06;;;;;;;;;13.25;13.25;;;;;18.05;65.15;102412.06;5079553;27;45497;-75
2021/06/05 21:23:32;;;;;;;;;12.50;12.50;;;;;18.04;65.42;102414.81;5076281;28;45359;-75
2021/06/05 21:25:57;;;;;;;;;15.00;13.00;;;;;17.99;65.42;102410.53;5075115;28;45429;-75
2021/06/05 21:28:24;;;;;;;;;11.50;11.50;;;;;17.99;65.61;102413.19;5077430;27;47095;-75
2021/06/05 21:30:52;;;;;;;;;11.75;11.50;;;;;17.95;65.52;102408.91;5076815;28;45397;-75
2021/06/05 21:33:21;;;;;;;;;12.50;12.50;;;;;17.90;66.07;102413.56;5076562;28;45418;-75
2021/06/05 21:35:49;;;;;;;;;13.00;13.00;;;;;17.83;65.80;102415.53;5072746;27;45651;-75
2021/06/05 21:38:17;;;;;;;;;9.75;9.75;;;;;17.82;66.31;102419.16;5071175;27;45564;-74
2021/06/05 21:40:42;;;;;;;;;10.75;10.75;;;;;17.76;66.02;102414.91;5076217;28;45683;-75
2021/06/05 21:43:12;;;;;;;;;13.25;13.25;;;;;17.73;66.84;102411.53;5078252;28;45448;-75
2021/06/05 21:45:38;;;;;;;;;13.50;11.75;;;;;17.68;66.07;102418.78;5074656;28;45306;-75
2021/06/05 21:48:06;;;;;;;;;8.00;8.00;;;;;17.65;66.32;102420.66;5073402;27;45700;-75
2021/06/05 21:50:32;;;;;;;;;17.75;14.50;;;;;17.66;65.98;102418.81;5079366;27;45568;-75
2021/06/05 21:53:00;;;;;;;;;13.00;13.00;;;;;17.64;66.07;102428.66;5078260;27;46010;-75
2021/06/05 21:55:26;;;;;;;;;13.00;12.00;;;;;17.62;65.72;102417.22;5090727;27;46125;-74
2021/06/05 21:57:52;;;;;;;;;10.75;10.50;;;;;17.61;65.72;102421.66;5076808;28;47234;-74